Gjoa Haven, Nunavut

5:19 AM CDT on August 01, 2014 (GMT -0500)
Gjoa Haven (CYHK) Elev 138 ft | 68.64 °N, 95.85 °W | Change Station

Current weather conditions updated 19 minutes ago

Rain
Rain
43 °F
Feels Like 35 °F
N
16
Wind Variable Wind from NNW
Gusts 23 mph

Today is forecast to be Much Cooler than yesterday. Light rain in the morning.

Today
High -- | Low -- °F
--% Chance of Precip.
Yesterday
High -- | Low -- °F
Precip. -- in
3:26 AM 11:27 PM
Waxing Crescent, 25% visible
Pressure 29.94 in
Visibility 9.0 miles
Clouds Mostly Cloudy 700 ft
Overcast 4900 ft
Windchill 35 °F
Dew Point 41 °F
Humidity 93%
Rainfall 0.00 in
Snow Depth Not available.
UV 0 out of 12
Pollen Not available.
Air Quality Not available.
Flu Activity Not available.
METAR CYHK 011000Z AUTO 33014G20KT 9SM RA BKN007 OVC049 06/05 A2992 RMK MAX WND 32019KT AT 0943Z PCPN 0.5MM PAST HR SLP136

More Conditions Fewer Conditions

Pressure 29.94 in
Visibility 9.0 miles
Clouds Mostly Cloudy 700 ft
Overcast 4900 ft
Windchill 35 °F
Dew Point 41 °F
Humidity 93%
Rainfall 0.00 in
Snow Depth Not available.
UV 0 out of 12
Pollen Not available.
Air Quality Not available.
Flu Activity Not available.
METAR CYHK 011000Z AUTO 33014G20KT 9SM RA BKN007 OVC049 06/05 A2992 RMK MAX WND 32019KT AT 0943Z PCPN 0.5MM PAST HR SLP136

More Conditions Fewer Conditions

10-Day Weather Forecast

Almanac

Astronomy

Aug. 01, 2014 Rise Set
Actual Time 3:26 AM CDT 11:27 PM CDT
Civil Twilight Sun does not rise Sun does not rise
Nautical Twilight Sun does not rise Sun does not rise
Astronomical Twilight Sun does not rise Sun does not rise
Moon 12:29 PM CDT 10:28 PM CDT
Length of Visible Light 24h 00m
Length of Day
20h 01m
Tomorrow will be 11m 26s shorter.
Waxing Crescent, 25% of the Moon is Illuminated
Today
Waxing Crescent
Aug 3
First Quarter
Aug 10
Full
Aug 17
Last Quarter
Aug 25
New

Yesterday's Extremes

Country Highs Country Lows

Community

WunderPhotos

Upload Photos

1,739,533 photos uploaded!

Nearby

Snow Depth

Not available.

Earthquake Activity

City Distance Mag. Time & Date
No recent earthquake activity has been reported nearby.
Minimum magnitude displayed is 2.5.

Coastal Water Temperatures

Place Temperature
No Stations Reporting

Nearby Weather Stations

There are no personal weather stations in this area.